In Rescue
 
Open Full Screen Window  High Contrast Mode
Wind Gusting 00 knots
03
February 25, 2021 4:33 PM EST
Weather Information
Wind Direction
  300 °
Wind Speed
  03 kt (3 mph)
Wind Gust
  00 kt (0 mph)
Altimeter
30.14 in
Visibility
10 SM
Temperature
-03° C
27° F
Dewpoint
-12° C
10° F
Humidity
50%
Sky Condition
Clear
VFR

METAR KFSO 252133Z AUTO 30003KT 10SM CLR M03/M12 A3014 RMK AO2 T10331124

FAA Disclaimer: The data displayed is for advisory purposes only and is not to be used for flight planning or operations.